createdAt,value
2023-02-15T00:01:13.637Z,52.15
2023-02-15T00:03:41.030Z,54.30
2023-02-15T00:06:10.799Z,52.95
2023-02-15T00:08:37.947Z,54.38
2023-02-15T00:11:16.891Z,52.40
2023-02-15T00:13:46.311Z,58.63
2023-02-15T00:16:14.196Z,52.50
2023-02-15T00:18:45.775Z,50.28
2023-02-15T00:21:15.307Z,53.03
2023-02-15T00:23:42.320Z,48.63
2023-02-15T00:26:11.951Z,53.92
2023-02-15T00:28:39.769Z,52.40
2023-02-15T00:31:12.123Z,49.33
2023-02-15T00:33:40.451Z,48.75
2023-02-15T00:36:09.489Z,52.15
2023-02-15T00:38:41.314Z,48.15
2023-02-15T00:41:09.745Z,52.80
2023-02-15T00:43:37.858Z,48.65
2023-02-15T00:46:06.326Z,53.20
2023-02-15T00:48:33.707Z,52.35
2023-02-15T00:51:01.734Z,54.78
2023-02-15T00:53:30.084Z,57.17
2023-02-15T00:56:00.826Z,52.65
2023-02-15T00:58:28.109Z,84.43
2023-02-15T01:00:55.488Z,53.30
2023-02-15T01:03:25.158Z,49.80
2023-02-15T01:05:52.516Z,50.53
2023-02-15T01:08:19.569Z,51.95
2023-02-15T01:10:46.917Z,52.63
2023-02-15T01:13:15.640Z,52.67
2023-02-15T01:15:44.224Z,55.58
2023-02-15T01:18:12.652Z,51.22
2023-02-15T01:20:40.904Z,52.40
2023-02-15T01:23:11.126Z,52.67
2023-02-15T01:25:38.510Z,55.38
2023-02-15T01:28:06.155Z,50.85
2023-02-15T01:30:33.953Z,51.15
2023-02-15T01:33:01.336Z,48.92
2023-02-15T01:35:31.575Z,50.92
2023-02-15T01:38:01.335Z,51.63
2023-02-15T01:40:28.866Z,50.20
2023-02-15T01:42:58.257Z,50.05
2023-02-15T01:45:33.030Z,54.15
2023-02-15T01:48:00.084Z,47.88
2023-02-15T01:50:36.925Z,53.83
2023-02-15T01:53:23.112Z,49.63
2023-02-15T01:56:10.045Z,50.08
2023-02-15T01:58:38.096Z,50.97
2023-02-15T02:01:08.557Z,52.67
2023-02-15T02:04:18.452Z,51.38
2023-02-15T02:06:48.974Z,49.97
2023-02-15T02:09:16.221Z,50.30
2023-02-15T02:11:47.329Z,48.70
2023-02-15T02:14:14.964Z,54.35
2023-02-15T02:16:53.691Z,48.92
2023-02-15T02:19:35.842Z,51.72
2023-02-15T02:22:09.387Z,53.38
2023-02-15T02:24:39.241Z,51.75
2023-02-15T02:27:42.339Z,51.30
2023-02-15T02:30:34.224Z,48.92
2023-02-15T02:33:38.369Z,54.17
2023-02-15T02:36:28.423Z,53.13
2023-02-15T02:39:12.355Z,54.63
2023-02-15T02:41:45.667Z,54.72
2023-02-15T02:44:23.720Z,54.15
2023-02-15T02:47:00.319Z,52.72
2023-02-15T02:49:37.928Z,54.38
2023-02-15T02:52:41.822Z,56.88
2023-02-15T02:55:24.302Z,54.38
2023-02-15T02:57:57.170Z,57.75
2023-02-15T03:00:28.628Z,55.55
2023-02-15T03:03:03.615Z,54.75
2023-02-15T03:05:34.845Z,56.83
2023-02-15T03:08:04.906Z,52.97
2023-02-15T03:10:35.826Z,53.08
2023-02-15T03:13:03.741Z,56.30
2023-02-15T03:15:40.291Z,54.22
2023-02-15T03:18:12.273Z,53.17
2023-02-15T03:20:39.737Z,51.25
2023-02-15T03:23:17.747Z,53.80
2023-02-15T03:25:52.696Z,51.63
2023-02-15T03:28:27.954Z,54.40
2023-02-15T03:30:59.805Z,56.30
2023-02-15T03:33:29.851Z,53.88
2023-02-15T03:36:12.833Z,50.88
2023-02-15T03:38:55.686Z,55.53
2023-02-15T03:41:29.107Z,53.45
2023-02-15T03:44:01.847Z,50.08
2023-02-15T03:46:47.667Z,55.47
2023-02-15T03:49:53.246Z,52.13
2023-02-15T03:52:22.540Z,54.17
2023-02-15T03:54:50.880Z,54.90
2023-02-15T03:57:37.824Z,55.45
2023-02-15T04:00:13.179Z,54.75
2023-02-15T04:02:52.590Z,54.67
2023-02-15T04:05:19.983Z,55.80
2023-02-15T04:07:47.400Z,53.72
2023-02-15T04:10:17.008Z,55.35
2023-02-15T04:12:46.821Z,54.75
2023-02-15T04:15:16.564Z,53.10
2023-02-15T04:17:46.408Z,57.55
2023-02-15T04:20:16.036Z,55.92
2023-02-15T04:22:43.544Z,53.67
2023-02-15T04:25:10.670Z,55.00
2023-02-15T04:27:39.771Z,53.55
2023-02-15T04:30:07.762Z,55.38
2023-02-15T04:32:36.124Z,56.78
2023-02-15T04:35:06.085Z,53.28
2023-02-15T04:37:34.344Z,56.00
2023-02-15T04:40:01.825Z,52.63
2023-02-15T04:42:29.278Z,57.05
2023-02-15T04:44:56.313Z,58.10
2023-02-15T04:47:23.729Z,62.55
2023-02-15T04:49:52.980Z,56.78
2023-02-15T04:52:22.808Z,62.67
2023-02-15T04:54:49.903Z,57.65
2023-02-15T04:57:17.364Z,55.00
2023-02-15T04:59:46.703Z,57.97
2023-02-15T05:02:14.113Z,57.03
2023-02-15T05:04:41.247Z,57.95
2023-02-15T05:07:10.932Z,64.80
2023-02-15T05:09:40.407Z,61.10
2023-02-15T05:12:07.807Z,65.40
2023-02-15T05:14:37.098Z,57.88
2023-02-15T05:17:04.460Z,60.83
2023-02-15T05:19:31.714Z,65.32
2023-02-15T05:21:59.306Z,59.97
2023-02-15T05:24:26.355Z,60.13
2023-02-15T05:26:53.790Z,63.15
2023-02-15T05:29:23.318Z,62.63
2023-02-15T05:31:50.908Z,56.97
2023-02-15T05:34:18.054Z,62.63
2023-02-15T05:36:45.470Z,59.95
2023-02-15T05:39:12.505Z,59.00
2023-02-15T05:41:39.905Z,60.10
2023-02-15T05:44:09.159Z,63.60
2023-02-15T05:46:36.552Z,59.63
2023-02-15T05:49:06.539Z,64.50
2023-02-15T05:51:33.973Z,63.80
2023-02-15T05:54:03.441Z,61.00
2023-02-15T05:56:30.806Z,64.38
2023-02-15T05:58:57.923Z,66.18
2023-02-15T06:01:25.393Z,59.25
2023-02-15T06:03:53.088Z,61.70
2023-02-15T06:06:20.513Z,62.47
2023-02-15T06:08:49.934Z,61.17
2023-02-15T06:11:17.306Z,64.22
2023-02-15T06:13:44.386Z,63.70
2023-02-15T06:16:14.053Z,61.30
2023-02-15T06:18:41.232Z,60.50
2023-02-15T06:21:10.940Z,63.05
2023-02-15T06:23:40.496Z,62.70
2023-02-15T06:26:07.919Z,59.35
2023-02-15T06:28:35.040Z,61.90
2023-02-15T06:31:02.578Z,57.22
2023-02-15T06:33:29.769Z,62.80
2023-02-15T06:35:57.410Z,54.58
2023-02-15T06:38:24.497Z,51.75
2023-02-15T06:40:54.136Z,53.45
2023-02-15T06:43:21.252Z,53.28
2023-02-15T06:45:48.775Z,47.33
2023-02-15T06:48:15.820Z,47.35
2023-02-15T06:50:43.352Z,44.88
2023-02-15T06:53:10.418Z,46.70
2023-02-15T06:55:37.824Z,43.70
2023-02-15T06:58:04.976Z,45.08
2023-02-15T07:00:32.502Z,46.55
2023-02-15T07:03:02.500Z,45.40
2023-02-15T07:05:29.899Z,47.78
2023-02-15T07:07:57.119Z,46.13
2023-02-15T07:10:24.649Z,47.35
2023-02-15T07:12:54.298Z,46.05
2023-02-15T07:15:22.698Z,45.13
2023-02-15T07:17:50.313Z,41.38
2023-02-15T07:20:22.920Z,42.13
2023-02-15T07:22:52.799Z,41.33
2023-02-15T07:25:20.388Z,40.63
2023-02-15T07:27:49.879Z,41.03
2023-02-15T07:30:20.534Z,41.78
2023-02-15T07:32:50.252Z,43.47
2023-02-15T07:35:19.861Z,40.75
2023-02-15T07:37:46.874Z,42.90
2023-02-15T07:40:14.312Z,42.83
2023-02-15T07:42:41.340Z,41.03
2023-02-15T07:45:11.556Z,36.33
2023-02-15T07:47:41.130Z,35.03
2023-02-15T07:50:08.723Z,37.63
2023-02-15T07:52:35.752Z,33.72
2023-02-15T07:55:03.129Z,39.10
2023-02-15T07:57:30.148Z,37.25
2023-02-15T07:59:57.664Z,35.92
2023-02-15T08:02:24.753Z,38.20
2023-02-15T08:04:52.139Z,34.50
2023-02-15T08:07:19.257Z,34.58
2023-02-15T08:09:46.631Z,36.45
2023-02-15T08:12:16.126Z,36.38
2023-02-15T08:14:45.962Z,35.78
2023-02-15T08:17:15.344Z,37.25
2023-02-15T08:19:45.273Z,46.30
2023-02-15T08:22:17.745Z,45.38
2023-02-15T08:24:46.950Z,38.28
2023-02-15T08:27:14.032Z,36.63
2023-02-15T08:29:41.461Z,37.38
2023-02-15T08:32:13.161Z,29.83
2023-02-15T08:34:42.531Z,25.33
2023-02-15T08:37:12.610Z,22.75
2023-02-15T08:39:40.087Z,24.65
2023-02-15T08:42:07.239Z,22.35
2023-02-15T08:44:34.629Z,22.50
2023-02-15T08:47:01.874Z,22.83
2023-02-15T08:49:29.239Z,23.63
2023-02-15T08:51:58.869Z,22.90
2023-02-15T08:54:26.311Z,22.67
2023-02-15T08:56:53.474Z,23.33
2023-02-15T08:59:24.287Z,23.38
2023-02-15T09:01:53.086Z,24.75
2023-02-15T09:04:23.921Z,24.42
2023-02-15T09:06:53.507Z,22.73
2023-02-15T09:09:25.367Z,23.58
2023-02-15T09:11:57.672Z,20.98
2023-02-15T09:14:26.488Z,22.58
2023-02-15T09:16:54.106Z,22.40
2023-02-15T09:19:23.110Z,20.80
2023-02-15T09:21:50.338Z,23.77
2023-02-15T09:24:22.401Z,22.33
2023-02-15T09:29:21.358Z,23.90
2023-02-15T09:31:50.461Z,22.45
2023-02-15T09:34:23.396Z,19.50
2023-02-15T09:36:51.386Z,22.23
2023-02-15T09:39:18.661Z,23.75
2023-02-15T09:42:04.197Z,37.40
2023-02-15T09:44:40.467Z,25.38
2023-02-15T09:47:22.421Z,22.83
2023-02-15T09:50:14.065Z,23.67
2023-02-15T09:53:08.811Z,22.90
2023-02-15T09:55:58.979Z,21.98
2023-02-15T09:58:41.046Z,21.73
2023-02-15T10:01:25.111Z,22.88
2023-02-15T10:04:12.521Z,22.90
2023-02-15T10:07:09.829Z,23.25
2023-02-15T10:09:55.747Z,21.20
2023-02-15T10:12:58.977Z,22.50
2023-02-15T10:15:53.744Z,23.05
2023-02-15T10:18:38.627Z,22.77
2023-02-15T10:21:49.865Z,24.15
2023-02-15T10:24:47.233Z,22.35
2023-02-15T10:27:24.794Z,26.80
2023-02-15T10:30:12.259Z,24.02
2023-02-15T10:33:07.293Z,22.00
2023-02-15T10:35:34.671Z,22.10
2023-02-15T10:38:30.601Z,20.85
2023-02-15T10:41:16.698Z,22.10
2023-02-15T10:43:55.645Z,21.38
2023-02-15T10:46:41.041Z,22.35
2023-02-15T10:49:47.568Z,23.30
2023-02-15T10:52:14.960Z,23.92
2023-02-15T10:55:00.767Z,24.30
2023-02-15T10:57:40.097Z,23.08
2023-02-15T11:00:14.720Z,22.80
2023-02-15T11:02:57.340Z,22.65
2023-02-15T11:05:58.441Z,22.48
2023-02-15T11:08:27.478Z,24.48
2023-02-15T11:11:03.679Z,25.90
2023-02-15T11:13:37.726Z,24.58
2023-02-15T11:16:12.747Z,25.27
2023-02-15T11:18:49.515Z,26.05
2023-02-15T11:21:24.789Z,26.75
2023-02-15T11:23:53.362Z,26.95
2023-02-15T11:26:42.256Z,27.77
2023-02-15T11:29:29.007Z,26.85
2023-02-15T11:32:03.507Z,29.73
2023-02-15T11:34:45.959Z,27.58
2023-02-15T11:37:21.778Z,28.50
2023-02-15T11:39:49.341Z,29.70
2023-02-15T11:42:21.857Z,29.58
2023-02-15T11:45:23.430Z,30.63
2023-02-15T11:47:50.765Z,31.50
2023-02-15T11:50:23.678Z,33.80
2023-02-15T11:53:01.828Z,36.38
2023-02-15T11:55:30.080Z,40.10
2023-02-15T11:58:15.294Z,47.47
2023-02-15T12:00:48.825Z,42.17
2023-02-15T12:03:28.817Z,41.67
2023-02-15T12:06:03.260Z,42.28
2023-02-15T12:08:45.567Z,43.70
2023-02-15T12:11:31.281Z,44.75
2023-02-15T12:14:02.839Z,43.72
2023-02-15T12:16:51.875Z,45.42
2023-02-15T12:19:21.693Z,46.65
2023-02-15T12:21:53.138Z,42.67
2023-02-15T12:24:29.710Z,44.03
2023-02-15T12:27:05.047Z,44.00
2023-02-15T12:29:40.808Z,46.88
2023-02-15T12:32:17.812Z,45.92
2023-02-15T12:34:46.167Z,46.10
2023-02-15T12:37:20.489Z,48.17
2023-02-15T12:40:02.139Z,46.88
2023-02-15T12:42:43.206Z,46.30
2023-02-15T12:45:30.717Z,45.85
2023-02-15T12:48:10.469Z,46.33
2023-02-15T12:50:37.801Z,49.08
2023-02-15T12:53:23.822Z,48.33
2023-02-15T12:55:54.763Z,47.17
2023-02-15T12:58:24.782Z,49.58
2023-02-15T13:01:10.246Z,45.17
2023-02-15T13:03:52.980Z,47.95
2023-02-15T13:06:21.607Z,52.33
2023-02-15T13:08:55.357Z,49.63
2023-02-15T13:11:33.726Z,53.45
2023-02-15T13:14:17.313Z,49.22
2023-02-15T13:16:46.741Z,47.38
2023-02-15T13:19:21.563Z,50.17
2023-02-15T13:21:51.764Z,54.28
2023-02-15T13:24:23.922Z,53.88
2023-02-15T13:26:51.850Z,50.35
2023-02-15T13:29:24.688Z,52.08
2023-02-15T13:31:54.395Z,55.93
2023-02-15T13:34:39.094Z,50.05
2023-02-15T13:37:16.206Z,54.00
2023-02-15T13:40:00.282Z,52.60
2023-02-15T13:42:52.029Z,49.67
2023-02-15T13:45:58.904Z,56.88
2023-02-15T13:48:48.462Z,52.40
2023-02-15T13:51:39.648Z,55.38
2023-02-15T13:54:07.006Z,56.20
2023-02-15T13:56:58.988Z,58.67
2023-02-15T13:59:44.254Z,54.50
2023-02-15T14:02:34.968Z,57.70
2023-02-15T14:05:23.497Z,57.92
2023-02-15T14:08:35.737Z,54.90
2023-02-15T14:11:34.102Z,53.13
2023-02-15T14:14:07.458Z,56.70
2023-02-15T14:17:06.121Z,54.70
2023-02-15T14:20:04.873Z,51.35
2023-02-15T14:22:45.362Z,52.33
2023-02-15T14:25:18.299Z,55.13
2023-02-15T14:28:11.210Z,50.03
2023-02-15T14:30:41.823Z,58.53
2023-02-15T14:33:14.849Z,54.88
2023-02-15T14:35:43.235Z,53.60
2023-02-15T14:38:22.206Z,55.47
2023-02-15T14:40:52.560Z,55.75
2023-02-15T14:43:25.574Z,50.22
2023-02-15T14:46:17.576Z,55.78
2023-02-15T14:48:51.609Z,53.70
2023-02-15T14:51:43.422Z,53.15
2023-02-15T14:54:31.211Z,58.88
2023-02-15T14:57:01.718Z,57.22
2023-02-15T14:59:51.653Z,51.63
2023-02-15T15:02:24.812Z,56.15
2023-02-15T15:05:01.365Z,51.97
2023-02-15T15:07:42.696Z,53.15
2023-02-15T15:10:15.881Z,54.50
2023-02-15T15:12:53.753Z,56.35
2023-02-15T15:15:30.096Z,57.17
2023-02-15T15:18:07.362Z,53.08
2023-02-15T15:20:50.907Z,60.75
2023-02-15T15:23:18.808Z,54.03
2023-02-15T15:26:19.837Z,55.55
2023-02-15T15:28:50.000Z,55.33
2023-02-15T15:31:23.245Z,52.05
2023-02-15T15:34:13.719Z,51.40
2023-02-15T15:37:04.638Z,54.88
2023-02-15T15:39:41.210Z,55.03
2023-02-15T15:42:26.707Z,60.97
2023-02-15T15:45:12.565Z,60.75
2023-02-15T15:47:46.828Z,55.97
2023-02-15T15:50:19.858Z,58.63
2023-02-15T15:52:55.516Z,65.03
2023-02-15T15:55:25.510Z,61.08
2023-02-15T15:58:02.017Z,56.10
2023-02-15T16:00:34.378Z,57.08
2023-02-15T16:03:01.864Z,51.83
2023-02-15T16:05:36.488Z,53.30
2023-02-15T16:08:03.669Z,58.28
2023-02-15T16:10:32.469Z,60.40
2023-02-15T16:12:59.771Z,56.10
2023-02-15T16:15:43.460Z,60.75
2023-02-15T16:18:21.188Z,68.13
2023-02-15T16:20:58.922Z,59.38
2023-02-15T16:23:38.179Z,62.30
2023-02-15T16:26:30.457Z,58.50
2023-02-15T16:28:57.735Z,57.90
2023-02-15T16:31:25.262Z,52.92
2023-02-15T16:34:00.176Z,55.22
2023-02-15T16:36:30.425Z,61.80
2023-02-15T16:38:57.541Z,59.70
2023-02-15T16:41:26.297Z,63.97
2023-02-15T16:43:55.289Z,62.53
2023-02-15T16:46:33.303Z,67.60
2023-02-15T16:49:13.293Z,62.72
2023-02-15T16:51:44.783Z,68.00
2023-02-15T16:54:23.855Z,83.97
2023-02-15T16:56:51.496Z,92.07
2023-02-15T16:59:49.367Z,101.15
2023-02-15T17:02:49.493Z,103.07
2023-02-15T17:05:18.589Z,113.43
2023-02-15T17:08:25.928Z,89.35
2023-02-15T17:11:07.733Z,85.13
2023-02-15T17:13:38.063Z,87.28
2023-02-15T17:16:05.487Z,78.10
2023-02-15T17:18:47.874Z,90.13
2023-02-15T17:21:20.102Z,84.00
2023-02-15T17:23:58.153Z,85.40
2023-02-15T17:26:30.000Z,74.55
2023-02-15T17:29:00.844Z,71.60
2023-02-15T17:31:32.366Z,79.38
2023-02-15T17:34:03.378Z,80.05
2023-02-15T17:36:32.131Z,83.95
2023-02-15T17:38:59.547Z,82.47
2023-02-15T17:41:29.718Z,85.20
2023-02-15T17:43:57.587Z,82.70
2023-02-15T17:46:30.372Z,75.40
2023-02-15T17:48:57.731Z,75.45
2023-02-15T17:51:24.951Z,78.20
2023-02-15T17:53:52.321Z,73.63
2023-02-15T17:56:21.937Z,80.28
2023-02-15T17:58:51.742Z,81.82
2023-02-15T18:01:21.185Z,84.00
2023-02-15T18:03:53.468Z,68.40
2023-02-15T18:06:20.612Z,70.93
2023-02-15T18:08:48.062Z,67.20
2023-02-15T18:11:19.596Z,70.97
2023-02-15T18:13:49.532Z,74.28
2023-02-15T18:16:22.829Z,71.25
2023-02-15T18:18:50.306Z,77.40
2023-02-15T18:21:17.370Z,78.05
2023-02-15T18:23:48.118Z,78.68
2023-02-15T18:26:22.009Z,75.25
2023-02-15T18:28:50.621Z,75.32
2023-02-15T18:31:19.134Z,75.78
2023-02-15T18:33:54.221Z,78.85
2023-02-15T18:36:27.893Z,75.40
2023-02-15T18:41:23.058Z,77.53
2023-02-15T18:43:53.024Z,79.55
2023-02-15T18:46:20.877Z,77.13
2023-02-15T18:48:50.656Z,77.88
2023-02-15T18:51:24.628Z,76.97
2023-02-15T18:53:55.690Z,72.50
2023-02-15T18:56:23.702Z,78.93
2023-02-15T18:58:53.378Z,77.35
2023-02-15T19:01:21.899Z,73.22
2023-02-15T19:03:52.030Z,71.78
2023-02-15T19:06:21.706Z,64.72
2023-02-15T19:08:53.668Z,64.10
2023-02-15T19:11:30.288Z,60.92
2023-02-15T19:13:58.016Z,61.40
2023-02-15T19:16:34.399Z,60.85
2023-02-15T19:19:02.066Z,61.65
2023-02-15T19:21:31.845Z,67.30
2023-02-15T19:24:04.785Z,68.88
2023-02-15T19:26:44.943Z,67.97
2023-02-15T19:29:15.848Z,65.32
2023-02-15T19:31:43.095Z,69.30
2023-02-15T19:34:15.823Z,70.25
2023-02-15T19:36:50.142Z,72.30
2023-02-15T19:39:32.908Z,67.03
2023-02-15T19:42:00.192Z,68.32
2023-02-15T19:44:27.616Z,67.55
2023-02-15T19:46:56.934Z,68.65
2023-02-15T19:49:24.350Z,67.00
2023-02-15T19:51:51.501Z,69.43
2023-02-15T19:54:29.356Z,65.57
2023-02-15T19:56:57.290Z,62.28
2023-02-15T19:59:32.964Z,65.25
2023-02-15T20:02:00.314Z,65.43
2023-02-15T20:04:27.909Z,62.60
2023-02-15T20:07:01.552Z,61.47
2023-02-15T20:11:57.160Z,63.15
2023-02-15T20:14:27.304Z,65.78
2023-02-15T20:16:56.942Z,59.15
2023-02-15T20:19:24.857Z,59.67
2023-02-15T20:21:52.016Z,61.25
2023-02-15T20:24:21.163Z,62.08
2023-02-15T20:26:48.386Z,62.92
2023-02-15T20:29:17.648Z,58.42
2023-02-15T20:31:46.504Z,59.75
2023-02-15T20:34:16.331Z,63.70
2023-02-15T20:36:47.911Z,63.30
2023-02-15T20:39:18.207Z,57.15
2023-02-15T20:41:47.900Z,60.63
2023-02-15T20:44:38.258Z,62.67
2023-02-15T20:47:05.341Z,55.65
2023-02-15T20:49:37.584Z,57.67
2023-02-15T20:52:18.620Z,60.30
2023-02-15T20:54:46.287Z,55.72
2023-02-15T20:57:13.479Z,54.08
2023-02-15T20:59:43.828Z,54.95
2023-02-15T21:02:19.882Z,51.83
2023-02-15T21:04:48.971Z,54.03
2023-02-15T21:07:20.971Z,54.15
2023-02-15T21:09:48.461Z,55.25
2023-02-15T21:12:18.632Z,61.10
2023-02-15T21:14:48.714Z,56.75
2023-02-15T21:17:16.616Z,56.88
2023-02-15T21:19:46.644Z,61.38
2023-02-15T21:22:15.443Z,59.20
2023-02-15T21:24:51.728Z,58.85
2023-02-15T21:27:19.068Z,61.88
2023-02-15T21:29:46.552Z,56.47
2023-02-15T21:32:16.452Z,61.10
2023-02-15T21:34:46.090Z,62.03
2023-02-15T21:37:33.102Z,61.45
2023-02-15T21:40:03.502Z,63.33
2023-02-15T21:42:30.682Z,63.03
2023-02-15T21:45:01.082Z,62.67
2023-02-15T21:47:30.607Z,63.97
2023-02-15T21:49:58.044Z,65.97
2023-02-15T21:52:27.357Z,64.40
2023-02-15T21:54:54.819Z,64.20
2023-02-15T21:57:26.341Z,64.95
2023-02-15T21:59:56.196Z,61.53
2023-02-15T22:02:31.159Z,59.25
2023-02-15T22:05:01.173Z,65.28
2023-02-15T22:07:30.457Z,65.13
2023-02-15T22:09:57.882Z,66.35
2023-02-15T22:12:24.953Z,63.90
2023-02-15T22:14:55.551Z,59.08
2023-02-15T22:17:25.968Z,59.30
2023-02-15T22:19:55.981Z,60.67
2023-02-15T22:22:26.019Z,56.38
2023-02-15T22:24:53.404Z,56.28
2023-02-15T22:27:23.986Z,56.30
2023-02-15T22:29:54.889Z,54.65
2023-02-15T22:32:24.588Z,57.35
2023-02-15T22:34:54.822Z,55.55
2023-02-15T22:37:22.146Z,51.78
2023-02-15T22:39:51.710Z,53.55
2023-02-15T22:42:27.241Z,56.78
2023-02-15T22:44:56.948Z,54.65
2023-02-15T22:47:27.493Z,59.45
2023-02-15T22:49:55.265Z,59.20
2023-02-15T22:52:22.607Z,52.47
2023-02-15T22:54:52.420Z,56.50
2023-02-15T22:57:31.811Z,54.08
2023-02-15T23:00:01.641Z,51.70
2023-02-15T23:02:28.915Z,57.15
2023-02-15T23:04:56.343Z,56.10
2023-02-15T23:07:23.426Z,53.80
2023-02-15T23:09:50.920Z,55.67
2023-02-15T23:12:30.496Z,54.88
2023-02-15T23:14:58.092Z,59.40
2023-02-15T23:17:25.189Z,61.67
2023-02-15T23:19:55.024Z,59.20
2023-02-15T23:22:22.112Z,64.03
2023-02-15T23:24:52.645Z,61.28
2023-02-15T23:27:19.897Z,56.03
2023-02-15T23:29:49.781Z,64.82
2023-02-15T23:32:17.004Z,63.45
2023-02-15T23:34:44.628Z,60.38
2023-02-15T23:37:15.561Z,55.35
2023-02-15T23:39:45.218Z,61.00
2023-02-15T23:42:21.225Z,61.58
2023-02-15T23:44:51.761Z,55.33
2023-02-15T23:47:20.267Z,55.45
2023-02-15T23:49:47.953Z,53.45
2023-02-15T23:52:15.007Z,52.65
2023-02-15T23:54:42.405Z,53.55
2023-02-15T23:57:11.380Z,62.05
2023-02-15T23:59:43.172Z,53.67
